Terminal Aerodrome Forecast
Issued by NWS

Home | Current Version | Previous Version | Text Only | Print | Product List | Glossary On
Versions: 1 2 3 4 5 6 7 8 9 10 11 12 13 14
000
FTUS46 KLOX 252300
TAFLGB
TAF
KLGB 252332Z 2600/2624 18006KT P6SM BKN150
     FM260500 16004KT P6SM FEW010 BKN150
     FM260700 VRB03KT P6SM OVC012
     FM261600 18006KT P6SM BKN015
     FM261900 19008KT P6SM SCT017 BKN150=

USA.gov is the U.S. government's official web portal to all federal, state and local government web resources and services.